Jansen, Colorado
Current Conditions -  °F | °C
As of 2:54 PM on Friday 24 Oct 2014 (Local Time) from KTAD Reporting Station
Clear Clear  
Wind Chill: 79°   Ceiling: Unl
Heat Index: 79°   Visibility: 10mi
Dew Point: 27°   Wind: 3mph
Humidity: 15%   Direction: 110°ESE
Pressure: 30.18"   Gusts: NA
Location:  37.1661°N, 104.486°W
Report Text: KTAD 242054Z AUTO 11003KT 10SM CLR 26/M03 A3018 RMK AO2 SLP152 T02611028 56021
Loading
Personal Weather Stations






























Interactive Weather Map
Tropical Storm Tracking
New forecast layout! Learn more

10-Day Weather Forecast

Advertisements
Track Severe Weather on mobile